FGSL

Malabo Airport

Malabo, Equatorial Guinea
METAR FGSL 242100Z VRB02KT 9999 TS SCT010 FEW020CB BKN060 25/23 Q1013 NOSIG
Observed Flight Rules
Sep-24 @ 21:00 UTC (25 minutes ago) Visual Flight Rules
Wind Visibility Clouds Conditions
Variable at 2 knots 10,000+ meters
  • Scattered at 1,000' AGL
  • Few at 2,000' AGL
  • Broken at 6,000' AGL
  • Thunderstorm
Temperatures Readings
Current 25°C / 77°F
Dewpoint 23°C / 73°F
Humidity 89%
Altimeter 29.91" Hg
Pressure 1013 hPa
Elevation 56
METAR FGSL 242100Z VRB02KT 9999 TS SCT010 FEW020CB BKN060 25/23 Q1013 NOSIG
Observed Flight Rules
Sep-24 @ 21:00 UTC
(25 minutes ago)
VFR
Wind Visibility
Variable at 2 knots 10,000+ meters
Clouds
  • Scattered at 1,000' AGL
  • Few at 2,000' AGL
  • Broken at 6,000' AGL
Conditions
  • Thunderstorm
Temperature Dewpoint
25°C / 77°F 23°C / 73°F
Humidity Altimeter Pressure
89% 29.91" Hg 1013 hPa